Kestrel — WDG5612 — position and weather

sailwx.info

Track history (hours):
 
Tides and Currents Weather Stations Pressure Air Temp Water Temp Dewpoint Dewpoint Depression Visibility Wind Speed Wind Dir Waves Ship Positions

Kestrel

Owner: Harley Marine Services, Inc, Seattle, WA. More information available from US FCC via Universal Licensing System and Coast Guard Vessel Documentation Center.

Last reported at 2018-Jun-21 08:30 UTC. Time now 2018-Jun-21 08:44 UTC.
Position N 48°31' W 122°35'.

Length 27 m; draft 3.5 m.

Type: Tow > 200 m length. MMSI: 367548420.

Date/timePositionNaut miles runAvg speedWind from/ knotsBaromVisibWave heightAir tempDewpointWater temp
2018-Jun-21 08:30N 48°31' W 122°35'1 1.5
2018-Jun-21 08:00N 48°31' W 122°34'0 0.3
2018-Jun-21 07:30N 48°30' W 122°34'0 0.0
2018-Jun-21 07:00N 48°30' W 122°34'0 0.0
2018-Jun-21 06:30N 48°30' W 122°34'0 0.0
2018-Jun-21 06:00N 48°30' W 122°34'0 0.0
2018-Jun-21 05:28N 48°30' W 122°34'0 0.0
2018-Jun-21 05:00N 48°30' W 122°34'0 0.0
2018-Jun-21 04:30N 48°30' W 122°34'0 0.0
2018-Jun-21 04:00N 48°30' W 122°34'0 0.0
2018-Jun-21 03:30N 48°30' W 122°34'0 0.0
2018-Jun-21 03:00N 48°30' W 122°34'0 0.0
2018-Jun-21 02:30N 48°30' W 122°34'0 0.0
2018-Jun-21 02:00N 48°30' W 122°34'0 0.0
2018-Jun-21 01:30N 48°30' W 122°34'0 0.0
2018-Jun-21 01:00N 48°30' W 122°34'0 0.0
2018-Jun-21 00:30N 48°30' W 122°34'0 0.0
2018-Jun-21 00:00N 48°30' W 122°34'0 0.0
2018-Jun-20 23:30N 48°30' W 122°34'0 0.0
2018-Jun-20 23:00N 48°30' W 122°34'0 0.0
2018-Jun-20 22:30N 48°30' W 122°34'0 0.0
2018-Jun-20 22:00N 48°30' W 122°34'0 0.0
2018-Jun-20 21:30N 48°30' W 122°34'0 0.0
2018-Jun-20 21:00N 48°30' W 122°34'0 0.0
2018-Jun-20 20:30N 48°30' W 122°34'0 0.0
2018-Jun-20 20:00N 48°30' W 122°34'0 0.0
2018-Jun-20 19:30N 48°30' W 122°34'0 0.0
2018-Jun-20 19:00N 48°30' W 122°34'0 0.0
2018-Jun-20 18:30N 48°30' W 122°34'0 1.0
2018-Jun-20 18:00N 48°31' W 122°35'2 3.7
2018-Jun-20 17:30N 48°31' W 122°37'3 5.6
2018-Jun-20 16:59N 48°31' W 122°42'2 5.0
2018-Jun-20 16:30N 48°29' W 122°44'3 4.9
2018-Jun-20 15:59N 48°27' W 122°44'3 5.4
2018-Jun-20 15:26N 48°24' W 122°44'23 5.9
2018-Jun-20 11:36N 48°02' W 122°37'1 7.0
2018-Jun-20 11:30N 48°01' W 122°37'4 7.2
2018-Jun-20 10:58N 47°58' W 122°34'3 6.8
2018-Jun-20 10:30N 47°56' W 122°30'3 6.2
2018-Jun-20 10:00N 47°53' W 122°28'3 6.3
2018-Jun-20 09:30N 47°50' W 122°27'3 6.2
2018-Jun-20 09:00N 47°47' W 122°26'3 6.3
2018-Jun-20 08:30N 47°44' W 122°26'3 6.4
2018-Jun-20 08:00N 47°41' W 122°27'3 5.8
2018-Jun-20 07:30N 47°38' W 122°26'3 5.7
2018-Jun-20 07:00N 47°36' W 122°23'1 3.0
2018-Jun-20 06:30N 47°36' W 122°21'1 0.2
2018-Jun-20 01:53N 47°35' W 122°21'0 0.0
2018-Jun-20 01:30N 47°35' W 122°21'0 0.0
2018-Jun-20 01:00N 47°35' W 122°21'0 0.0
2018-Jun-20 00:29N 47°35' W 122°21'0 0.0
2018-Jun-20 00:00N 47°35' W 122°21'0 0.0
2018-Jun-19 23:29N 47°35' W 122°21'0 0.0
2018-Jun-19 22:59N 47°35' W 122°21'0 0.0
2018-Jun-19 22:30N 47°35' W 122°21'0 0.0
2018-Jun-19 22:00N 47°35' W 122°21'0 0.0
2018-Jun-19 21:29N 47°35' W 122°21'0 0.0
2018-Jun-19 20:59N 47°35' W 122°21'0 0.0
2018-Jun-19 20:29N 47°35' W 122°21'0 0.0
2018-Jun-19 19:59N 47°35' W 122°21'0 0.0
2018-Jun-19 19:29N 47°35' W 122°21'0 0.0
2018-Jun-19 18:59N 47°35' W 122°21'0 0.1
2018-Jun-19 18:29N 47°35' W 122°21'2 4.3
2018-Jun-19 18:00N 47°37' W 122°22'1 2.4
2018-Jun-19 17:29N 47°38' W 122°23'0 0.0
2018-Jun-19 16:56N 47°38' W 122°23'0 0.0
2018-Jun-19 16:26N 47°38' W 122°23'0 0.0
2018-Jun-19 15:59N 47°38' W 122°23'0 0.0
2018-Jun-19 15:29N 47°38' W 122°23'0 0.0
2018-Jun-19 14:59N 47°38' W 122°23'0 0.0
2018-Jun-19 14:29N 47°38' W 122°23'0 0.1
2018-Jun-19 13:57N 47°38' W 122°23'0 0.0
2018-Jun-19 13:30N 47°38' W 122°23'2 4.4
2018-Jun-19 13:00N 47°36' W 122°21'0 0.8
2018-Jun-19 12:29N 47°35' W 122°21'0 0.0
2018-Jun-19 11:59N 47°35' W 122°21'0 0.0
2018-Jun-19 11:28N 47°35' W 122°21'0 0.0
2018-Jun-19 10:59N 47°35' W 122°21'0 0.0
2018-Jun-19 10:29N 47°35' W 122°21'0 0.0
2018-Jun-19 09:59N 47°35' W 122°21'0 0.0
2018-Jun-19 09:28N 47°35' W 122°21'0 0.0
2018-Jun-19 08:56N 47°35' W 122°21'0 0.0
2018-Jun-19 08:28N 47°35' W 122°21'0 0.0
2018-Jun-19 07:59N 47°35' W 122°21'0 0.0
2018-Jun-19 07:29N 47°35' W 122°21'0 0.0
2018-Jun-19 06:59N 47°35' W 122°21'0 0.0
2018-Jun-19 06:29N 47°35' W 122°21'0 0.0
2018-Jun-19 05:59N 47°35' W 122°21'0 0.0
2018-Jun-19 05:29N 47°35' W 122°21'0 0.0
2018-Jun-19 04:59N 47°35' W 122°21'0 0.0
2018-Jun-19 04:29N 47°35' W 122°21'0 0.0
2018-Jun-19 03:58N 47°35' W 122°21'0 0.0
2018-Jun-19 03:28N 47°35' W 122°21'0 0.0
2018-Jun-19 02:58N 47°35' W 122°21'0 0.0
2018-Jun-19 02:29N 47°35' W 122°21'0 0.0
2018-Jun-19 01:58N 47°35' W 122°21'0 0.0
2018-Jun-19 01:29N 47°35' W 122°21'0 0.0
2018-Jun-19 00:55N 47°35' W 122°21'0 0.0
2018-Jun-19 00:29N 47°35' W 122°21'0 0.0
2018-Jun-18 23:58N 47°35' W 122°21'0 0.0
2018-Jun-18 23:29N 47°35' W 122°21'0 0.0
2018-Jun-18 22:58N 47°35' W 122°21'1 2.0
2018-Jun-18 22:28N 47°34' W 122°21'0 0.0
2018-Jun-18 21:55N 47°34' W 122°21'0 0.0
2018-Jun-18 21:30N 47°34' W 122°21'0 0.0
2018-Jun-18 21:00N 47°34' W 122°21'0 0.1
2018-Jun-18 20:30N 47°34' W 122°21'1 1.9
2018-Jun-18 20:00N 47°35' W 122°21'2 4.9
2018-Jun-18 19:31N 47°37' W 122°23'0 0.3
2018-Jun-18 19:00N 47°38' W 122°23'0 0.1
2018-Jun-18 18:30N 47°38' W 122°23'0 0.0
2018-Jun-18 18:00N 47°38' W 122°23'0 0.0
2018-Jun-18 17:30N 47°38' W 122°23'0 0.0
2018-Jun-18 17:00N 47°38' W 122°23'0 0.0
2018-Jun-18 16:30N 47°38' W 122°23'0 0.0
2018-Jun-18 16:00N 47°38' W 122°23'0 0.0
2018-Jun-18 15:30N 47°38' W 122°23'0 0.0
2018-Jun-18 15:00N 47°38' W 122°23'0 0.0
2018-Jun-18 14:30N 47°38' W 122°23'0 0.2
2018-Jun-18 14:00N 47°38' W 122°23'1 1.1
2018-Jun-18 13:30N 47°37' W 122°24'1 1.1
2018-Jun-18 12:59N 47°37' W 122°25'2 3.8
2018-Jun-18 12:30N 47°39' W 122°27'2 4.6
2018-Jun-18 12:00N 47°41' W 122°27'2 4.9
2018-Jun-18 11:30N 47°43' W 122°26'2 4.8
2018-Jun-18 11:00N 47°46' W 122°25'1 2.4
2018-Jun-18 10:30N 47°47' W 122°24'0 0.1
2018-Jun-18 10:00N 47°47' W 122°24'0 0.0
2018-Jun-18 09:30N 47°47' W 122°24'0 0.0
2018-Jun-18 09:00N 47°47' W 122°24'0 0.0
2018-Jun-18 08:30N 47°47' W 122°24'0 0.0
2018-Jun-18 08:00N 47°47' W 122°24'0 0.0
2018-Jun-18 07:30N 47°47' W 122°24'0 0.0
2018-Jun-18 07:00N 47°47' W 122°24'0 0.0
2018-Jun-18 06:30N 47°47' W 122°24'0 0.0
2018-Jun-18 06:00N 47°47' W 122°24'0 0.0
2018-Jun-18 05:30N 47°47' W 122°24'0 0.0
2018-Jun-18 05:00N 47°47' W 122°24'0 0.0
2018-Jun-18 04:30N 47°47' W 122°24'0 0.0
2018-Jun-18 04:00N 47°47' W 122°24'0 0.0
2018-Jun-18 03:30N 47°47' W 122°24'0 0.0
2018-Jun-18 03:00N 47°47' W 122°24'0 0.0
2018-Jun-18 02:30N 47°47' W 122°24'0 0.0
2018-Jun-18 02:00N 47°47' W 122°24'0 0.0
2018-Jun-18 01:30N 47°47' W 122°24'0 0.0
2018-Jun-18 01:00N 47°47' W 122°24'0 0.0
2018-Jun-18 00:30N 47°47' W 122°24'0 0.0
2018-Jun-18 00:00N 47°47' W 122°24'0 0.0
2018-Jun-17 23:30N 47°47' W 122°24'0 0.0
2018-Jun-17 23:00N 47°47' W 122°24'0 0.0
2018-Jun-17 22:30N 47°47' W 122°24'0 0.0
2018-Jun-17 22:00N 47°47' W 122°24'0 0.0
2018-Jun-17 21:30N 47°47' W 122°24'0 0.0
2018-Jun-17 21:00N 47°47' W 122°24'0 0.0
2018-Jun-17 20:30N 47°47' W 122°24'0 0.0
2018-Jun-17 20:00N 47°47' W 122°24'0 0.1
2018-Jun-17 19:30N 47°47' W 122°24'3 5.1
2018-Jun-17 19:00N 47°45' W 122°26'3 6.8
2018-Jun-17 18:30N 47°41' W 122°26'3 6.4
2018-Jun-17 18:00N 47°38' W 122°27'3 5.0
2018-Jun-17 17:30N 47°37' W 122°23'0 0.4
2018-Jun-17 16:58N 47°38' W 122°23'0 0.0
2018-Jun-17 16:28N 47°38' W 122°23'0 0.0
2018-Jun-17 15:58N 47°38' W 122°23'0 0.0
2018-Jun-17 15:28N 47°38' W 122°23'0 0.0
2018-Jun-17 14:58N 47°38' W 122°23'0 0.0
2018-Jun-17 14:28N 47°38' W 122°23'0 0.0
2018-Jun-17 13:58N 47°38' W 122°23'0 0.0
2018-Jun-17 13:28N 47°38' W 122°23'0 0.4
2018-Jun-17 13:00N 47°37' W 122°23'2 4.3
2018-Jun-17 12:30N 47°36' W 122°21'1 2.2
2018-Jun-17 12:00N 47°35' W 122°21'0 0.0
2018-Jun-17 11:27N 47°35' W 122°21'0 0.0
2018-Jun-17 11:00N 47°35' W 122°21'0 0.0
2018-Jun-17 10:30N 47°35' W 122°21'0 0.0
2018-Jun-17 10:00N 47°35' W 122°21'0 0.0
2018-Jun-17 09:30N 47°35' W 122°21'0 0.0
2018-Jun-17 09:00N 47°35' W 122°21'0 0.0
2018-Jun-17 08:30N 47°35' W 122°21'0 0.0
2018-Jun-17 08:00N 47°35' W 122°21'0 0.0
2018-Jun-17 07:27N 47°35' W 122°21'0 0.0
2018-Jun-17 07:00N 47°35' W 122°21'0 0.0
2018-Jun-17 06:30N 47°35' W 122°21'0 0.0
2018-Jun-17 04:09N 47°35' W 122°21'0 0.0
2018-Jun-17 04:00N 47°35' W 122°21'0 0.0
2018-Jun-17 03:27N 47°35' W 122°21'0 0.0
2018-Jun-17 02:57N 47°35' W 122°21'0 0.0
2018-Jun-17 02:21N 47°35' W 122°21'0 0.0
2018-Jun-17 02:00N 47°35' W 122°21'0 0.0
2018-Jun-17 01:21N 47°35' W 122°21'0 0.0
2018-Jun-17 01:00N 47°35' W 122°21'0 0.0
2018-Jun-17 00:24N 47°35' W 122°21'0 0.0
2018-Jun-17 00:00N 47°35' W 122°21'0 0.0
2018-Jun-16 23:30N 47°35' W 122°21'0 0.0
2018-Jun-16 23:00N 47°35' W 122°21'0 0.8
2018-Jun-16 22:29N 47°34' W 122°21'0 0.0
2018-Jun-16 21:59N 47°34' W 122°21'0 0.0
2018-Jun-16 21:02N 47°34' W 122°21'0 0.0
2018-Jun-16 20:59N 47°34' W 122°21'0 0.0
2018-Jun-16 20:29N 47°34' W 122°21'0 0.0
2018-Jun-16 19:56N 47°34' W 122°21'0 0.0
2018-Jun-16 19:26N 47°34' W 122°21'0 0.4
2018-Jun-16 19:00N 47°35' W 122°21'1 1.9
2018-Jun-16 18:31N 47°35' W 122°21'3 4.8
2018-Jun-16 17:58N 47°38' W 122°23'0 0.0
2018-Jun-16 17:25N 47°38' W 122°23'0 0.0
2018-Jun-16 16:58N 47°38' W 122°23'0 0.0
2018-Jun-16 16:28N 47°38' W 122°23'0 0.0
2018-Jun-16 15:55N 47°38' W 122°23'0 0.0
2018-Jun-16 15:28N 47°38' W 122°23'0 0.0
2018-Jun-16 14:58N 47°38' W 122°23'0 0.0
2018-Jun-16 14:25N 47°38' W 122°23'0 0.0
2018-Jun-16 14:00N 47°38' W 122°23'0 0.2
2018-Jun-16 13:27N 47°38' W 122°23'2 3.9
2018-Jun-16 13:01N 47°36' W 122°22'1 2.1
2018-Jun-16 12:30N 47°35' W 122°21'0 0.1
2018-Jun-16 11:58N 47°35' W 122°21'0 0.0
2018-Jun-16 11:28N 47°35' W 122°21'0 0.0
2018-Jun-16 10:58N 47°35' W 122°21'0 0.0
2018-Jun-16 10:28N 47°35' W 122°21'0 0.0
2018-Jun-16 09:58N 47°35' W 122°21'0 0.0
2018-Jun-16 09:28N 47°35' W 122°21'0 0.0
2018-Jun-16 08:55N 47°35' W 122°21'0 0.0
2018-Jun-16 08:28N 47°35' W 122°21'0 0.0
2018-Jun-16 07:58N 47°35' W 122°21'0 0.0
2018-Jun-16 07:28N 47°35' W 122°21'0 0.0
2018-Jun-16 06:58N 47°35' W 122°21'0 0.0
2018-Jun-16 06:28N 47°35' W 122°21'0 0.0
2018-Jun-16 05:58N 47°35' W 122°21'0 0.0
2018-Jun-16 05:28N 47°35' W 122°21'0 0.0
2018-Jun-16 04:58N 47°35' W 122°21'0 0.0
2018-Jun-16 04:28N 47°35' W 122°21'0 0.0
2018-Jun-16 03:58N 47°35' W 122°21'0 0.0
2018-Jun-16 03:28N 47°35' W 122°21'0 0.0
2018-Jun-16 02:58N 47°35' W 122°21'0 0.0
2018-Jun-16 02:28N 47°35' W 122°21'0 0.0
2018-Jun-16 01:58N 47°35' W 122°21'0 0.0
2018-Jun-16 01:28N 47°35' W 122°21'0 0.0
2018-Jun-16 00:58N 47°35' W 122°21'0 0.0
2018-Jun-16 00:25N 47°35' W 122°21'0 0.0
2018-Jun-15 23:25N 47°35' W 122°21'0 0.0
2018-Jun-15 21:55N 47°35' W 122°21'0 0.0
2018-Jun-15 21:28N 47°35' W 122°21'1 1.6
2018-Jun-15 20:57N 47°34' W 122°21'0 0.0
2018-Jun-15 20:30N 47°34' W 122°21'0 0.0
2018-Jun-15 19:57N 47°34' W 122°21'1 1.7
2018-Jun-15 19:29N 47°35' W 122°21'1 2.2
2018-Jun-15 19:00N 47°36' W 122°21'3 6.8
2018-Jun-15 18:30N 47°38' W 122°26'3 5.7
2018-Jun-15 18:00N 47°41' W 122°27'3 6.3
2018-Jun-15 17:31N 47°44' W 122°25'3 6.1
2018-Jun-15 17:00N 47°47' W 122°24'0 0.9
2018-Jun-15 16:27N 47°47' W 122°24'0 0.0
2018-Jun-15 16:00N 47°47' W 122°24'0 0.0
2018-Jun-15 15:27N 47°47' W 122°24'0 0.0
2018-Jun-15 15:00N 47°47' W 122°24'0 0.0
2018-Jun-15 14:30N 47°47' W 122°24'0 0.0
2018-Jun-15 14:00N 47°47' W 122°24'0 0.0
2018-Jun-15 13:30N 47°47' W 122°24'0 0.0
2018-Jun-15 13:00N 47°47' W 122°24'0 0.0
2018-Jun-15 12:30N 47°47' W 122°24'0 0.0
2018-Jun-15 12:00N 47°47' W 122°24'0 0.0
2018-Jun-15 11:27N 47°47' W 122°24'0 0.0
2018-Jun-15 11:00N 47°47' W 122°24'0 0.0
2018-Jun-15 10:30N 47°47' W 122°24'0 0.0
2018-Jun-15 10:00N 47°47' W 122°24'0 0.0
2018-Jun-15 09:30N 47°47' W 122°24'0 0.0
2018-Jun-15 09:01N 47°47' W 122°24'1 1.8
2018-Jun-15 08:31N 47°46' W 122°25'3 6.1
2018-Jun-15 08:01N 47°43' W 122°26'3 5.8
2018-Jun-15 07:31N 47°40' W 122°27'3 5.8
2018-Jun-15 07:00N 47°38' W 122°26'2 4.9
2018-Jun-15 06:31N 47°37' W 122°22'0 0.1
2018-Jun-15 06:00N 47°37' W 122°22'0 0.1
2018-Jun-15 05:31N 47°37' W 122°22'0 0.1
2018-Jun-15 05:00N 47°37' W 122°22'0 0.0
2018-Jun-15 04:31N 47°37' W 122°22'0 0.2
2018-Jun-15 04:01N 47°37' W 122°22'0 0.3
2018-Jun-15 03:30N 47°37' W 122°22'0 0.1
2018-Jun-15 03:00N 47°37' W 122°22'0 0.1
2018-Jun-15 02:31N 47°37' W 122°22'0 0.0
2018-Jun-15 02:01N 47°37' W 122°22'0 0.0
2018-Jun-15 01:31N 47°37' W 122°22'0 0.0
2018-Jun-15 01:00N 47°37' W 122°22'0 0.1
2018-Jun-15 00:30N 47°37' W 122°23'0 0.0
2018-Jun-15 00:00N 47°37' W 122°23'0 0.1
2018-Jun-14 23:31N 47°37' W 122°23'0 0.2
2018-Jun-14 23:00N 47°37' W 122°22'0 0.3
2018-Jun-14 22:30N 47°37' W 122°22'0 0.1
2018-Jun-14 22:00N 47°37' W 122°22'1 1.4
2018-Jun-14 21:31N 47°37' W 122°22'2 3.5
2018-Jun-14 21:01N 47°35' W 122°21'0 0.3
2018-Jun-14 20:30N 47°35' W 122°21'0 0.1
2018-Jun-14 20:01N 47°35' W 122°21'0 0.0
2018-Jun-14 19:31N 47°35' W 122°21'0 0.6
2018-Jun-14 19:01N 47°34' W 122°21'0 0.0
2018-Jun-14 18:31N 47°34' W 122°21'0 0.0
2018-Jun-14 18:01N 47°34' W 122°21'0 0.0
2018-Jun-14 17:31N 47°34' W 122°21'0 0.0
2018-Jun-14 17:01N 47°34' W 122°21'0 0.0
2018-Jun-14 16:30N 47°34' W 122°21'0 0.0
2018-Jun-14 16:00N 47°34' W 122°21'0 0.0
2018-Jun-14 15:31N 47°34' W 122°21'0 0.1
2018-Jun-14 15:00N 47°34' W 122°21'0 0.8
2018-Jun-14 14:31N 47°35' W 122°21'0 0.0
2018-Jun-14 14:00N 47°35' W 122°21'0 0.1
2018-Jun-14 13:30N 47°35' W 122°21'0 0.4
2018-Jun-14 13:00N 47°35' W 122°21'1 1.7
2018-Jun-14 12:30N 47°36' W 122°21'2 4.8
2018-Jun-14 12:01N 47°37' W 122°24'3 5.2
2018-Jun-14 11:30N 47°39' W 122°26'3 5.1
2018-Jun-14 11:00N 47°42' W 122°26'3 5.4
2018-Jun-14 10:30N 47°44' W 122°25'3 5.4
2018-Jun-14 10:01N 47°47' W 122°24'0 0.6
2018-Jun-14 09:30N 47°47' W 122°24'0 0.0
2018-Jun-14 09:00N 47°47' W 122°24'0 0.0
2018-Jun-14 08:30N 47°47' W 122°24'0 0.0
2018-Jun-14 08:01N 47°47' W 122°24'0 0.0
2018-Jun-14 07:30N 47°47' W 122°24'0 0.0
2018-Jun-14 07:01N 47°47' W 122°24'0 0.0
2018-Jun-14 06:30N 47°47' W 122°24'0 0.0
2018-Jun-14 06:00N 47°47' W 122°24'0 0.0
2018-Jun-14 05:30N 47°47' W 122°24'0 0.0
2018-Jun-14 05:00N 47°47' W 122°24'0 0.0
2018-Jun-14 04:29N 47°47' W 122°24'0 0.0
2018-Jun-14 04:01N 47°47' W 122°24'0 0.0
2018-Jun-14 03:29N 47°47' W 122°24'0 0.0
2018-Jun-14 03:01N 47°47' W 122°24'0 0.0
2018-Jun-14 02:31N 47°47' W 122°24'0 0.0
2018-Jun-14 02:00N 47°47' W 122°24'0 0.1
2018-Jun-14 01:30N 47°47' W 122°24'0 0.1
2018-Jun-14 01:00N 47°47' W 122°24'0 0.0
2018-Jun-14 00:30N 47°47' W 122°24'0 0.0
2018-Jun-14 00:01N 47°47' W 122°24'0 0.0
2018-Jun-13 23:30N 47°47' W 122°24'0 0.0
2018-Jun-13 23:00N 47°47' W 122°24'0 0.0
2018-Jun-13 22:31N 47°47' W 122°24'0 0.0
2018-Jun-13 22:00N 47°47' W 122°24'0 0.0
2018-Jun-13 21:30N 47°47' W 122°24'0 0.0
2018-Jun-13 21:00N 47°47' W 122°24'0 0.0
2018-Jun-13 20:31N 47°47' W 122°24'0 0.0
2018-Jun-13 20:01N 47°47' W 122°24'0 0.0
2018-Jun-13 19:30N 47°47' W 122°24'0 0.0
2018-Jun-13 19:00N 47°47' W 122°24'0 0.0
2018-Jun-13 18:31N 47°47' W 122°24'0 0.0
2018-Jun-13 18:01N 47°47' W 122°24'0 0.0
2018-Jun-13 17:31N 47°47' W 122°24'0 0.0
2018-Jun-13 17:00N 47°47' W 122°24'0 0.0
2018-Jun-13 16:31N 47°47' W 122°24'0 0.0
2018-Jun-13 16:00N 47°47' W 122°24'0 0.0
2018-Jun-13 15:31N 47°47' W 122°24'0 0.0
2018-Jun-13 15:01N 47°47' W 122°24'0 0.0
2018-Jun-13 14:31N 47°47' W 122°24'0 0.0
2018-Jun-13 14:01N 47°47' W 122°24'0 0.0
2018-Jun-13 13:29N 47°47' W 122°24'0 0.0
2018-Jun-13 13:00N 47°47' W 122°24'0 0.0
2018-Jun-13 12:30N 47°47' W 122°24'0 0.0
2018-Jun-13 12:00N 47°47' W 122°24'0 0.0
2018-Jun-13 11:30N 47°47' W 122°24'0 0.0
2018-Jun-13 11:00N 47°47' W 122°24'0 0.0
2018-Jun-13 10:30N 47°47' W 122°24'0 0.0
2018-Jun-13 10:01N 47°47' W 122°24'0 0.7
2018-Jun-13 09:30N 47°47' W 122°24'1 2.4
2018-Jun-13 09:01N 47°48' W 122°25'4 6.9
2018-Jun-13 08:30N 47°51' W 122°28'4 7.2
2018-Jun-13 08:00N 47°54' W 122°30'32 6.3
2018-Jun-13 02:56N 48°25' W 122°45'3 7.5
2018-Jun-13 02:30N 48°28' W 122°44'3 6.5
2018-Jun-13 02:00N 48°31' W 122°43'3 6.0
2018-Jun-13 01:31N 48°31' W 122°38'2 4.7
2018-Jun-13 01:00N 48°31' W 122°35'1 1.6
2018-Jun-13 00:30N 48°30' W 122°34'0 0.0
2018-Jun-13 00:00N 48°30' W 122°34'0 0.0
2018-Jun-12 23:30N 48°30' W 122°34'0 0.0
2018-Jun-12 23:00N 48°30' W 122°34'0 0.0
2018-Jun-12 22:30N 48°30' W 122°34'0 0.0
2018-Jun-12 22:00N 48°30' W 122°34'0 0.0
2018-Jun-12 21:30N 48°30' W 122°34'0 0.0
2018-Jun-12 21:00N 48°30' W 122°34'0 0.0
2018-Jun-12 20:30N 48°30' W 122°34'0 0.0
2018-Jun-12 20:00N 48°30' W 122°34'0 0.0
2018-Jun-12 19:31N 48°30' W 122°34'0 0.0
2018-Jun-12 19:00N 48°30' W 122°34'0 0.0
2018-Jun-12 18:30N 48°30' W 122°34'0 0.0
2018-Jun-12 18:00N 48°30' W 122°34'0 0.0
2018-Jun-12 17:30N 48°30' W 122°34'0 0.0
2018-Jun-12 17:01N 48°30' W 122°34'0 0.0
2018-Jun-12 16:30N 48°30' W 122°34'0 0.0
2018-Jun-12 16:00N 48°30' W 122°34'0 0.0
2018-Jun-12 15:31N 48°30' W 122°34'0 0.0
2018-Jun-12 15:00N 48°30' W 122°34'0 0.5
2018-Jun-12 14:30N 48°31' W 122°35'1 2.4
2018-Jun-12 14:01N 48°31' W 122°36'2 4.0
2018-Jun-12 13:30N 48°31' W 122°39'2 5.0
2018-Jun-12 13:00N 48°31' W 122°42'1 2.4
2018-Jun-12 12:30N 48°30' W 122°43'2 3.1
2018-Jun-12 12:00N 48°28' W 122°44'2 4.2
2018-Jun-12 11:30N 48°26' W 122°44'3 6.4
2018-Jun-12 11:00N 48°23' W 122°44'5 8.3
2018-Jun-12 10:24N 48°18' W 122°46'3 7.6
2018-Jun-12 09:57N 48°15' W 122°48'11 6.1
2018-Jun-12 08:05N 48°05' W 122°39'2 7.5
2018-Jun-12 07:49N 48°03' W 122°38'2 7.0
2018-Jun-12 07:28N 48°01' W 122°37'4 7.7
2018-Jun-12 06:58N 47°58' W 122°34'4 7.8
2018-Jun-12 06:30N 47°56' W 122°29'5 8.2
2018-Jun-12 05:56N 47°51' W 122°27'3 8.0
2018-Jun-12 05:31N 47°48' W 122°26'2 3.2
2018-Jun-12 05:00N 47°47' W 122°24'0 0.1
2018-Jun-12 04:30N 47°47' W 122°24'0 0.0
2018-Jun-12 04:00N 47°47' W 122°24'0 0.0
2018-Jun-12 03:30N 47°47' W 122°24'0 0.0
2018-Jun-12 03:00N 47°47' W 122°24'0 0.0
2018-Jun-12 02:30N 47°47' W 122°24'0 0.0
2018-Jun-12 02:00N 47°47' W 122°24'0 0.0
2018-Jun-12 01:30N 47°47' W 122°24'0 0.0
2018-Jun-12 01:00N 47°47' W 122°24'0 0.0
2018-Jun-12 00:24N 47°47' W 122°24'0 0.0
2018-Jun-12 00:00N 47°47' W 122°24'0 0.0
2018-Jun-11 23:30N 47°47' W 122°24'0 0.0
2018-Jun-11 23:00N 47°47' W 122°24'0 0.0
2018-Jun-11 22:30N 47°47' W 122°24'0 0.0
2018-Jun-11 21:59N 47°47' W 122°24'0 0.0
2018-Jun-11 21:30N 47°47' W 122°24'0 0.0
2018-Jun-11 21:00N 47°47' W 122°24'0 0.1
2018-Jun-11 20:30N 47°47' W 122°24'1 1.0
2018-Jun-11 20:00N 47°47' W 122°25'1 1.6
2018-Jun-11 19:30N 47°48' W 122°25'4 7.2
2018-Jun-11 18:58N 47°51' W 122°28'35 5.8
2018-Jun-11 12:54N 48°24' W 122°45'4 9.1
2018-Jun-11 12:30N 48°28' W 122°45'4 7.4
2018-Jun-11 12:00N 48°31' W 122°41'3 6.7
2018-Jun-11 11:30N 48°32' W 122°36'2 3.3
2018-Jun-11 11:00N 48°31' W 122°34'0 0.4
2018-Jun-11 10:30N 48°30' W 122°34'0 0.0
2018-Jun-11 10:00N 48°30' W 122°34'0 0.0
2018-Jun-11 09:30N 48°30' W 122°34'0 0.0
2018-Jun-11 09:00N 48°30' W 122°34'0 0.0
2018-Jun-11 08:30N 48°30' W 122°34'  
Track history (hours):
 
Tides and Currents Weather Stations Pressure Air Temp Water Temp Dewpoint Dewpoint Depression Visibility Wind Speed Wind Dir Waves Ship Positions

Kestrel

Owner: Harley Marine Services, Inc, Seattle, WA. More information available from US FCC via Universal Licensing System and Coast Guard Vessel Documentation Center.

Last reported at 2018-Jun-21 08:30 UTC. Time now 2018-Jun-21 08:44 UTC.
Position N 48°31' W 122°35'.

Length 27 m; draft 3.5 m.

Type: Tow > 200 m length. MMSI: 367548420.

Date/timePositionNaut miles runAvg speedWind from/ knotsBaromVisibWave heightAir tempDewpointWater temp
2018-Jun-21 08:30N 48°31' W 122°35'1 1.5
2018-Jun-21 08:00N 48°31' W 122°34'0 0.3
2018-Jun-21 07:30N 48°30' W 122°34'0 0.0
2018-Jun-21 07:00N 48°30' W 122°34'0 0.0
2018-Jun-21 06:30N 48°30' W 122°34'0 0.0
2018-Jun-21 06:00N 48°30' W 122°34'0 0.0
2018-Jun-21 05:28N 48°30' W 122°34'0 0.0
2018-Jun-21 05:00N 48°30' W 122°34'0 0.0
2018-Jun-21 04:30N 48°30' W 122°34'0 0.0
2018-Jun-21 04:00N 48°30' W 122°34'0 0.0
2018-Jun-21 03:30N 48°30' W 122°34'0 0.0
2018-Jun-21 03:00N 48°30' W 122°34'0 0.0
2018-Jun-21 02:30N 48°30' W 122°34'0 0.0
2018-Jun-21 02:00N 48°30' W 122°34'0 0.0
2018-Jun-21 01:30N 48°30' W 122°34'0 0.0
2018-Jun-21 01:00N 48°30' W 122°34'0 0.0
2018-Jun-21 00:30N 48°30' W 122°34'0 0.0
2018-Jun-21 00:00N 48°30' W 122°34'0 0.0
2018-Jun-20 23:30N 48°30' W 122°34'0 0.0
2018-Jun-20 23:00N 48°30' W 122°34'0 0.0
2018-Jun-20 22:30N 48°30' W 122°34'0 0.0
2018-Jun-20 22:00N 48°30' W 122°34'0 0.0
2018-Jun-20 21:30N 48°30' W 122°34'0 0.0
2018-Jun-20 21:00N 48°30' W 122°34'0 0.0
2018-Jun-20 20:30N 48°30' W 122°34'0 0.0
2018-Jun-20 20:00N 48°30' W 122°34'0 0.0
2018-Jun-20 19:30N 48°30' W 122°34'0 0.0
2018-Jun-20 19:00N 48°30' W 122°34'0 0.0
2018-Jun-20 18:30N 48°30' W 122°34'0 1.0
2018-Jun-20 18:00N 48°31' W 122°35'2 3.7
2018-Jun-20 17:30N 48°31' W 122°37'3 5.6
2018-Jun-20 16:59N 48°31' W 122°42'2 5.0
2018-Jun-20 16:30N 48°29' W 122°44'3 4.9
2018-Jun-20 15:59N 48°27' W 122°44'3 5.4
2018-Jun-20 15:26N 48°24' W 122°44'23 5.9
2018-Jun-20 11:36N 48°02' W 122°37'1 7.0
2018-Jun-20 11:30N 48°01' W 122°37'4 7.2
2018-Jun-20 10:58N 47°58' W 122°34'3 6.8
2018-Jun-20 10:30N 47°56' W 122°30'3 6.2
2018-Jun-20 10:00N 47°53' W 122°28'3 6.3
2018-Jun-20 09:30N 47°50' W 122°27'3 6.2
2018-Jun-20 09:00N 47°47' W 122°26'3 6.3
2018-Jun-20 08:30N 47°44' W 122°26'3 6.4
2018-Jun-20 08:00N 47°41' W 122°27'3 5.8
2018-Jun-20 07:30N 47°38' W 122°26'3 5.7
2018-Jun-20 07:00N 47°36' W 122°23'1 3.0
2018-Jun-20 06:30N 47°36' W 122°21'1 0.2
2018-Jun-20 01:53N 47°35' W 122°21'0 0.0
2018-Jun-20 01:30N 47°35' W 122°21'0 0.0
2018-Jun-20 01:00N 47°35' W 122°21'0 0.0
2018-Jun-20 00:29N 47°35' W 122°21'0 0.0
2018-Jun-20 00:00N 47°35' W 122°21'0 0.0
2018-Jun-19 23:29N 47°35' W 122°21'0 0.0
2018-Jun-19 22:59N 47°35' W 122°21'0 0.0
2018-Jun-19 22:30N 47°35' W 122°21'0 0.0
2018-Jun-19 22:00N 47°35' W 122°21'0 0.0
2018-Jun-19 21:29N 47°35' W 122°21'0 0.0
2018-Jun-19 20:59N 47°35' W 122°21'0 0.0
2018-Jun-19 20:29N 47°35' W 122°21'0 0.0
2018-Jun-19 19:59N 47°35' W 122°21'0 0.0
2018-Jun-19 19:29N 47°35' W 122°21'0 0.0
2018-Jun-19 18:59N 47°35' W 122°21'0 0.1
2018-Jun-19 18:29N 47°35' W 122°21'2 4.3
2018-Jun-19 18:00N 47°37' W 122°22'1 2.4
2018-Jun-19 17:29N 47°38' W 122°23'0 0.0
2018-Jun-19 16:56N 47°38' W 122°23'0 0.0
2018-Jun-19 16:26N 47°38' W 122°23'0 0.0
2018-Jun-19 15:59N 47°38' W 122°23'0 0.0
2018-Jun-19 15:29N 47°38' W 122°23'0 0.0
2018-Jun-19 14:59N 47°38' W 122°23'0 0.0
2018-Jun-19 14:29N 47°38' W 122°23'0 0.1
2018-Jun-19 13:57N 47°38' W 122°23'0 0.0
2018-Jun-19 13:30N 47°38' W 122°23'2 4.4
2018-Jun-19 13:00N 47°36' W 122°21'0 0.8
2018-Jun-19 12:29N 47°35' W 122°21'0 0.0
2018-Jun-19 11:59N 47°35' W 122°21'0 0.0
2018-Jun-19 11:28N 47°35' W 122°21'0 0.0
2018-Jun-19 10:59N 47°35' W 122°21'0 0.0
2018-Jun-19 10:29N 47°35' W 122°21'0 0.0
2018-Jun-19 09:59N 47°35' W 122°21'0 0.0
2018-Jun-19 09:28N 47°35' W 122°21'0 0.0
2018-Jun-19 08:56N 47°35' W 122°21'0 0.0
2018-Jun-19 08:28N 47°35' W 122°21'0 0.0
2018-Jun-19 07:59N 47°35' W 122°21'0 0.0
2018-Jun-19 07:29N 47°35' W 122°21'0 0.0
2018-Jun-19 06:59N 47°35' W 122°21'0 0.0
2018-Jun-19 06:29N 47°35' W 122°21'0 0.0
2018-Jun-19 05:59N 47°35' W 122°21'0 0.0
2018-Jun-19 05:29N 47°35' W 122°21'0 0.0
2018-Jun-19 04:59N 47°35' W 122°21'0 0.0
2018-Jun-19 04:29N 47°35' W 122°21'0 0.0
2018-Jun-19 03:58N 47°35' W 122°21'0 0.0
2018-Jun-19 03:28N 47°35' W 122°21'0 0.0
2018-Jun-19 02:58N 47°35' W 122°21'0 0.0
2018-Jun-19 02:29N 47°35' W 122°21'0 0.0
2018-Jun-19 01:58N 47°35' W 122°21'0 0.0
2018-Jun-19 01:29N 47°35' W 122°21'0 0.0
2018-Jun-19 00:55N 47°35' W 122°21'0 0.0
2018-Jun-19 00:29N 47°35' W 122°21'0 0.0
2018-Jun-18 23:58N 47°35' W 122°21'0 0.0
2018-Jun-18 23:29N 47°35' W 122°21'0 0.0
2018-Jun-18 22:58N 47°35' W 122°21'1 2.0
2018-Jun-18 22:28N 47°34' W 122°21'0 0.0
2018-Jun-18 21:55N 47°34' W 122°21'0 0.0
2018-Jun-18 21:30N 47°34' W 122°21'0 0.0
2018-Jun-18 21:00N 47°34' W 122°21'0 0.1
2018-Jun-18 20:30N 47°34' W 122°21'1 1.9
2018-Jun-18 20:00N 47°35' W 122°21'2 4.9
2018-Jun-18 19:31N 47°37' W 122°23'0 0.3
2018-Jun-18 19:00N 47°38' W 122°23'0 0.1
2018-Jun-18 18:30N 47°38' W 122°23'0 0.0
2018-Jun-18 18:00N 47°38' W 122°23'0 0.0
2018-Jun-18 17:30N 47°38' W 122°23'0 0.0
2018-Jun-18 17:00N 47°38' W 122°23'0 0.0
2018-Jun-18 16:30N 47°38' W 122°23'0 0.0
2018-Jun-18 16:00N 47°38' W 122°23'0 0.0
2018-Jun-18 15:30N 47°38' W 122°23'0 0.0
2018-Jun-18 15:00N 47°38' W 122°23'0 0.0
2018-Jun-18 14:30N 47°38' W 122°23'0 0.2
2018-Jun-18 14:00N 47°38' W 122°23'1 1.1
2018-Jun-18 13:30N 47°37' W 122°24'1 1.1
2018-Jun-18 12:59N 47°37' W 122°25'2 3.8
2018-Jun-18 12:30N 47°39' W 122°27'2 4.6
2018-Jun-18 12:00N 47°41' W 122°27'2 4.9
2018-Jun-18 11:30N 47°43' W 122°26'2 4.8
2018-Jun-18 11:00N 47°46' W 122°25'1 2.4
2018-Jun-18 10:30N 47°47' W 122°24'0 0.1
2018-Jun-18 10:00N 47°47' W 122°24'0 0.0
2018-Jun-18 09:30N 47°47' W 122°24'0 0.0
2018-Jun-18 09:00N 47°47' W 122°24'0 0.0
2018-Jun-18 08:30N 47°47' W 122°24'0 0.0
2018-Jun-18 08:00N 47°47' W 122°24'0 0.0
2018-Jun-18 07:30N 47°47' W 122°24'0 0.0
2018-Jun-18 07:00N 47°47' W 122°24'0 0.0
2018-Jun-18 06:30N 47°47' W 122°24'0 0.0
2018-Jun-18 06:00N 47°47' W 122°24'0 0.0
2018-Jun-18 05:30N 47°47' W 122°24'0 0.0
2018-Jun-18 05:00N 47°47' W 122°24'0 0.0
2018-Jun-18 04:30N 47°47' W 122°24'0 0.0
2018-Jun-18 04:00N 47°47' W 122°24'0 0.0
2018-Jun-18 03:30N 47°47' W 122°24'0 0.0
2018-Jun-18 03:00N 47°47' W 122°24'0 0.0
2018-Jun-18 02:30N 47°47' W 122°24'0 0.0
2018-Jun-18 02:00N 47°47' W 122°24'0 0.0
2018-Jun-18 01:30N 47°47' W 122°24'0 0.0
2018-Jun-18 01:00N 47°47' W 122°24'0 0.0
2018-Jun-18 00:30N 47°47' W 122°24'0 0.0
2018-Jun-18 00:00N 47°47' W 122°24'0 0.0
2018-Jun-17 23:30N 47°47' W 122°24'0 0.0
2018-Jun-17 23:00N 47°47' W 122°24'0 0.0
2018-Jun-17 22:30N 47°47' W 122°24'0 0.0
2018-Jun-17 22:00N 47°47' W 122°24'0 0.0
2018-Jun-17 21:30N 47°47' W 122°24'0 0.0
2018-Jun-17 21:00N 47°47' W 122°24'0 0.0
2018-Jun-17 20:30N 47°47' W 122°24'0 0.0
2018-Jun-17 20:00N 47°47' W 122°24'0 0.1
2018-Jun-17 19:30N 47°47' W 122°24'3 5.1
2018-Jun-17 19:00N 47°45' W 122°26'3 6.8
2018-Jun-17 18:30N 47°41' W 122°26'3 6.4
2018-Jun-17 18:00N 47°38' W 122°27'3 5.0
2018-Jun-17 17:30N 47°37' W 122°23'0 0.4
2018-Jun-17 16:58N 47°38' W 122°23'0 0.0
2018-Jun-17 16:28N 47°38' W 122°23'0 0.0
2018-Jun-17 15:58N 47°38' W 122°23'0 0.0
2018-Jun-17 15:28N 47°38' W 122°23'0 0.0
2018-Jun-17 14:58N 47°38' W 122°23'0 0.0
2018-Jun-17 14:28N 47°38' W 122°23'0 0.0
2018-Jun-17 13:58N 47°38' W 122°23'0 0.0
2018-Jun-17 13:28N 47°38' W 122°23'0 0.4
2018-Jun-17 13:00N 47°37' W 122°23'2 4.3
2018-Jun-17 12:30N 47°36' W 122°21'1 2.2
2018-Jun-17 12:00N 47°35' W 122°21'0 0.0
2018-Jun-17 11:27N 47°35' W 122°21'0 0.0
2018-Jun-17 11:00N 47°35' W 122°21'0 0.0
2018-Jun-17 10:30N 47°35' W 122°21'0 0.0
2018-Jun-17 10:00N 47°35' W 122°21'0 0.0
2018-Jun-17 09:30N 47°35' W 122°21'0 0.0
2018-Jun-17 09:00N 47°35' W 122°21'0 0.0
2018-Jun-17 08:30N 47°35' W 122°21'0 0.0
2018-Jun-17 08:00N 47°35' W 122°21'0 0.0
2018-Jun-17 07:27N 47°35' W 122°21'0 0.0
2018-Jun-17 07:00N 47°35' W 122°21'0 0.0
2018-Jun-17 06:30N 47°35' W 122°21'0 0.0
2018-Jun-17 04:09N 47°35' W 122°21'0 0.0
2018-Jun-17 04:00N 47°35' W 122°21'0 0.0
2018-Jun-17 03:27N 47°35' W 122°21'0 0.0
2018-Jun-17 02:57N 47°35' W 122°21'0 0.0
2018-Jun-17 02:21N 47°35' W 122°21'0 0.0
2018-Jun-17 02:00N 47°35' W 122°21'0 0.0
2018-Jun-17 01:21N 47°35' W 122°21'0 0.0
2018-Jun-17 01:00N 47°35' W 122°21'0 0.0
2018-Jun-17 00:24N 47°35' W 122°21'0 0.0
2018-Jun-17 00:00N 47°35' W 122°21'0 0.0
2018-Jun-16 23:30N 47°35' W 122°21'0 0.0
2018-Jun-16 23:00N 47°35' W 122°21'0 0.8
2018-Jun-16 22:29N 47°34' W 122°21'0 0.0
2018-Jun-16 21:59N 47°34' W 122°21'0 0.0
2018-Jun-16 21:02N 47°34' W 122°21'0 0.0
2018-Jun-16 20:59N 47°34' W 122°21'0 0.0
2018-Jun-16 20:29N 47°34' W 122°21'0 0.0
2018-Jun-16 19:56N 47°34' W 122°21'0 0.0
2018-Jun-16 19:26N 47°34' W 122°21'0 0.4
2018-Jun-16 19:00N 47°35' W 122°21'1 1.9
2018-Jun-16 18:31N 47°35' W 122°21'3 4.8
2018-Jun-16 17:58N 47°38' W 122°23'0 0.0
2018-Jun-16 17:25N 47°38' W 122°23'0 0.0
2018-Jun-16 16:58N 47°38' W 122°23'0 0.0
2018-Jun-16 16:28N 47°38' W 122°23'0 0.0
2018-Jun-16 15:55N 47°38' W 122°23'0 0.0
2018-Jun-16 15:28N 47°38' W 122°23'0 0.0
2018-Jun-16 14:58N 47°38' W 122°23'0 0.0
2018-Jun-16 14:25N 47°38' W 122°23'0 0.0
2018-Jun-16 14:00N 47°38' W 122°23'0 0.2
2018-Jun-16 13:27N 47°38' W 122°23'2 3.9
2018-Jun-16 13:01N 47°36' W 122°22'1 2.1
2018-Jun-16 12:30N 47°35' W 122°21'0 0.1
2018-Jun-16 11:58N 47°35' W 122°21'0 0.0
2018-Jun-16 11:28N 47°35' W 122°21'0 0.0
2018-Jun-16 10:58N 47°35' W 122°21'0 0.0
2018-Jun-16 10:28N 47°35' W 122°21'0 0.0
2018-Jun-16 09:58N 47°35' W 122°21'0 0.0
2018-Jun-16 09:28N 47°35' W 122°21'0 0.0
2018-Jun-16 08:55N 47°35' W 122°21'0 0.0
2018-Jun-16 08:28N 47°35' W 122°21'0 0.0
2018-Jun-16 07:58N 47°35' W 122°21'0 0.0
2018-Jun-16 07:28N 47°35' W 122°21'0 0.0
2018-Jun-16 06:58N 47°35' W 122°21'0 0.0
2018-Jun-16 06:28N 47°35' W 122°21'0 0.0
2018-Jun-16 05:58N 47°35' W 122°21'0 0.0
2018-Jun-16 05:28N 47°35' W 122°21'0 0.0
2018-Jun-16 04:58N 47°35' W 122°21'0 0.0
2018-Jun-16 04:28N 47°35' W 122°21'0 0.0
2018-Jun-16 03:58N 47°35' W 122°21'0 0.0
2018-Jun-16 03:28N 47°35' W 122°21'0 0.0
2018-Jun-16 02:58N 47°35' W 122°21'0 0.0
2018-Jun-16 02:28N 47°35' W 122°21'0 0.0
2018-Jun-16 01:58N 47°35' W 122°21'0 0.0
2018-Jun-16 01:28N 47°35' W 122°21'0 0.0
2018-Jun-16 00:58N 47°35' W 122°21'0 0.0
2018-Jun-16 00:25N 47°35' W 122°21'0 0.0
2018-Jun-15 23:25N 47°35' W 122°21'0 0.0
2018-Jun-15 21:55N 47°35' W 122°21'0 0.0
2018-Jun-15 21:28N 47°35' W 122°21'1 1.6
2018-Jun-15 20:57N 47°34' W 122°21'0 0.0
2018-Jun-15 20:30N 47°34' W 122°21'0 0.0
2018-Jun-15 19:57N 47°34' W 122°21'1 1.7
2018-Jun-15 19:29N 47°35' W 122°21'1 2.2
2018-Jun-15 19:00N 47°36' W 122°21'3 6.8
2018-Jun-15 18:30N 47°38' W 122°26'3 5.7
2018-Jun-15 18:00N 47°41' W 122°27'3 6.3
2018-Jun-15 17:31N 47°44' W 122°25'3 6.1
2018-Jun-15 17:00N 47°47' W 122°24'0 0.9
2018-Jun-15 16:27N 47°47' W 122°24'0 0.0
2018-Jun-15 16:00N 47°47' W 122°24'0 0.0
2018-Jun-15 15:27N 47°47' W 122°24'0 0.0
2018-Jun-15 15:00N 47°47' W 122°24'0 0.0
2018-Jun-15 14:30N 47°47' W 122°24'0 0.0
2018-Jun-15 14:00N 47°47' W 122°24'0 0.0
2018-Jun-15 13:30N 47°47' W 122°24'0 0.0
2018-Jun-15 13:00N 47°47' W 122°24'0 0.0
2018-Jun-15 12:30N 47°47' W 122°24'0 0.0
2018-Jun-15 12:00N 47°47' W 122°24'0 0.0
2018-Jun-15 11:27N 47°47' W 122°24'0 0.0
2018-Jun-15 11:00N 47°47' W 122°24'0 0.0
2018-Jun-15 10:30N 47°47' W 122°24'0 0.0
2018-Jun-15 10:00N 47°47' W 122°24'0 0.0
2018-Jun-15 09:30N 47°47' W 122°24'0 0.0
2018-Jun-15 09:01N 47°47' W 122°24'1 1.8
2018-Jun-15 08:31N 47°46' W 122°25'3 6.1
2018-Jun-15 08:01N 47°43' W 122°26'3 5.8
2018-Jun-15 07:31N 47°40' W 122°27'3 5.8
2018-Jun-15 07:00N 47°38' W 122°26'2 4.9
2018-Jun-15 06:31N 47°37' W 122°22'0 0.1
2018-Jun-15 06:00N 47°37' W 122°22'0 0.1
2018-Jun-15 05:31N 47°37' W 122°22'0 0.1
2018-Jun-15 05:00N 47°37' W 122°22'0 0.0
2018-Jun-15 04:31N 47°37' W 122°22'0 0.2
2018-Jun-15 04:01N 47°37' W 122°22'0 0.3
2018-Jun-15 03:30N 47°37' W 122°22'0 0.1
2018-Jun-15 03:00N 47°37' W 122°22'0 0.1
2018-Jun-15 02:31N 47°37' W 122°22'0 0.0
2018-Jun-15 02:01N 47°37' W 122°22'0 0.0
2018-Jun-15 01:31N 47°37' W 122°22'0 0.0
2018-Jun-15 01:00N 47°37' W 122°22'0 0.1
2018-Jun-15 00:30N 47°37' W 122°23'0 0.0
2018-Jun-15 00:00N 47°37' W 122°23'0 0.1
2018-Jun-14 23:31N 47°37' W 122°23'0 0.2
2018-Jun-14 23:00N 47°37' W 122°22'0 0.3
2018-Jun-14 22:30N 47°37' W 122°22'0 0.1
2018-Jun-14 22:00N 47°37' W 122°22'1 1.4
2018-Jun-14 21:31N 47°37' W 122°22'2 3.5
2018-Jun-14 21:01N 47°35' W 122°21'0 0.3
2018-Jun-14 20:30N 47°35' W 122°21'0 0.1
2018-Jun-14 20:01N 47°35' W 122°21'0 0.0
2018-Jun-14 19:31N 47°35' W 122°21'0 0.6
2018-Jun-14 19:01N 47°34' W 122°21'0 0.0
2018-Jun-14 18:31N 47°34' W 122°21'0 0.0
2018-Jun-14 18:01N 47°34' W 122°21'0 0.0
2018-Jun-14 17:31N 47°34' W 122°21'0 0.0
2018-Jun-14 17:01N 47°34' W 122°21'0 0.0
2018-Jun-14 16:30N 47°34' W 122°21'0 0.0
2018-Jun-14 16:00N 47°34' W 122°21'0 0.0
2018-Jun-14 15:31N 47°34' W 122°21'0 0.1
2018-Jun-14 15:00N 47°34' W 122°21'0 0.8
2018-Jun-14 14:31N 47°35' W 122°21'0 0.0
2018-Jun-14 14:00N 47°35' W 122°21'0 0.1
2018-Jun-14 13:30N 47°35' W 122°21'0 0.4
2018-Jun-14 13:00N 47°35' W 122°21'1 1.7
2018-Jun-14 12:30N 47°36' W 122°21'2 4.8
2018-Jun-14 12:01N 47°37' W 122°24'3 5.2
2018-Jun-14 11:30N 47°39' W 122°26'3 5.1
2018-Jun-14 11:00N 47°42' W 122°26'3 5.4
2018-Jun-14 10:30N 47°44' W 122°25'3 5.4
2018-Jun-14 10:01N 47°47' W 122°24'0 0.6
2018-Jun-14 09:30N 47°47' W 122°24'0 0.0
2018-Jun-14 09:00N 47°47' W 122°24'0 0.0
2018-Jun-14 08:30N 47°47' W 122°24'0 0.0
2018-Jun-14 08:01N 47°47' W 122°24'0 0.0
2018-Jun-14 07:30N 47°47' W 122°24'0 0.0
2018-Jun-14 07:01N 47°47' W 122°24'0 0.0
2018-Jun-14 06:30N 47°47' W 122°24'0 0.0
2018-Jun-14 06:00N 47°47' W 122°24'0 0.0
2018-Jun-14 05:30N 47°47' W 122°24'0 0.0
2018-Jun-14 05:00N 47°47' W 122°24'0 0.0
2018-Jun-14 04:29N 47°47' W 122°24'0 0.0
2018-Jun-14 04:01N 47°47' W 122°24'0 0.0
2018-Jun-14 03:29N 47°47' W 122°24'0 0.0
2018-Jun-14 03:01N 47°47' W 122°24'0 0.0
2018-Jun-14 02:31N 47°47' W 122°24'0 0.0
2018-Jun-14 02:00N 47°47' W 122°24'0 0.1
2018-Jun-14 01:30N 47°47' W 122°24'0 0.1
2018-Jun-14 01:00N 47°47' W 122°24'0 0.0
2018-Jun-14 00:30N 47°47' W 122°24'0 0.0
2018-Jun-14 00:01N 47°47' W 122°24'0 0.0
2018-Jun-13 23:30N 47°47' W 122°24'0 0.0
2018-Jun-13 23:00N 47°47' W 122°24'0 0.0
2018-Jun-13 22:31N 47°47' W 122°24'0 0.0
2018-Jun-13 22:00N 47°47' W 122°24'0 0.0
2018-Jun-13 21:30N 47°47' W 122°24'0 0.0
2018-Jun-13 21:00N 47°47' W 122°24'0 0.0
2018-Jun-13 20:31N 47°47' W 122°24'0 0.0
2018-Jun-13 20:01N 47°47' W 122°24'0 0.0
2018-Jun-13 19:30N 47°47' W 122°24'0 0.0
2018-Jun-13 19:00N 47°47' W 122°24'0 0.0
2018-Jun-13 18:31N 47°47' W 122°24'0 0.0
2018-Jun-13 18:01N 47°47' W 122°24'0 0.0
2018-Jun-13 17:31N 47°47' W 122°24'0 0.0
2018-Jun-13 17:00N 47°47' W 122°24'0 0.0
2018-Jun-13 16:31N 47°47' W 122°24'0 0.0
2018-Jun-13 16:00N 47°47' W 122°24'0 0.0
2018-Jun-13 15:31N 47°47' W 122°24'0 0.0
2018-Jun-13 15:01N 47°47' W 122°24'0 0.0
2018-Jun-13 14:31N 47°47' W 122°24'0 0.0
2018-Jun-13 14:01N 47°47' W 122°24'0 0.0
2018-Jun-13 13:29N 47°47' W 122°24'0 0.0
2018-Jun-13 13:00N 47°47' W 122°24'0 0.0
2018-Jun-13 12:30N 47°47' W 122°24'0 0.0
2018-Jun-13 12:00N 47°47' W 122°24'0 0.0
2018-Jun-13 11:30N 47°47' W 122°24'0 0.0
2018-Jun-13 11:00N 47°47' W 122°24'0 0.0
2018-Jun-13 10:30N 47°47' W 122°24'0 0.0
2018-Jun-13 10:01N 47°47' W 122°24'0 0.7
2018-Jun-13 09:30N 47°47' W 122°24'1 2.4
2018-Jun-13 09:01N 47°48' W 122°25'4 6.9
2018-Jun-13 08:30N 47°51' W 122°28'4 7.2
2018-Jun-13 08:00N 47°54' W 122°30'32 6.3
2018-Jun-13 02:56N 48°25' W 122°45'3 7.5
2018-Jun-13 02:30N 48°28' W 122°44'3 6.5
2018-Jun-13 02:00N 48°31' W 122°43'3 6.0
2018-Jun-13 01:31N 48°31' W 122°38'2 4.7
2018-Jun-13 01:00N 48°31' W 122°35'1 1.6
2018-Jun-13 00:30N 48°30' W 122°34'0 0.0
2018-Jun-13 00:00N 48°30' W 122°34'0 0.0
2018-Jun-12 23:30N 48°30' W 122°34'0 0.0
2018-Jun-12 23:00N 48°30' W 122°34'0 0.0
2018-Jun-12 22:30N 48°30' W 122°34'0 0.0
2018-Jun-12 22:00N 48°30' W 122°34'0 0.0
2018-Jun-12 21:30N 48°30' W 122°34'0 0.0
2018-Jun-12 21:00N 48°30' W 122°34'0 0.0
2018-Jun-12 20:30N 48°30' W 122°34'0 0.0
2018-Jun-12 20:00N 48°30' W 122°34'0 0.0
2018-Jun-12 19:31N 48°30' W 122°34'0 0.0
2018-Jun-12 19:00N 48°30' W 122°34'0 0.0
2018-Jun-12 18:30N 48°30' W 122°34'0 0.0
2018-Jun-12 18:00N 48°30' W 122°34'0 0.0
2018-Jun-12 17:30N 48°30' W 122°34'0 0.0
2018-Jun-12 17:01N 48°30' W 122°34'0 0.0
2018-Jun-12 16:30N 48°30' W 122°34'0 0.0
2018-Jun-12 16:00N 48°30' W 122°34'0 0.0
2018-Jun-12 15:31N 48°30' W 122°34'0 0.0
2018-Jun-12 15:00N 48°30' W 122°34'0 0.5
2018-Jun-12 14:30N 48°31' W 122°35'1 2.4
2018-Jun-12 14:01N 48°31' W 122°36'2 4.0
2018-Jun-12 13:30N 48°31' W 122°39'2 5.0
2018-Jun-12 13:00N 48°31' W 122°42'1 2.4
2018-Jun-12 12:30N 48°30' W 122°43'2 3.1
2018-Jun-12 12:00N 48°28' W 122°44'2 4.2
2018-Jun-12 11:30N 48°26' W 122°44'3 6.4
2018-Jun-12 11:00N 48°23' W 122°44'5 8.3
2018-Jun-12 10:24N 48°18' W 122°46'3 7.6
2018-Jun-12 09:57N 48°15' W 122°48'11 6.1
2018-Jun-12 08:05N 48°05' W 122°39'2 7.5
2018-Jun-12 07:49N 48°03' W 122°38'2 7.0
2018-Jun-12 07:28N 48°01' W 122°37'4 7.7
2018-Jun-12 06:58N 47°58' W 122°34'4 7.8
2018-Jun-12 06:30N 47°56' W 122°29'5 8.2
2018-Jun-12 05:56N 47°51' W 122°27'3 8.0
2018-Jun-12 05:31N 47°48' W 122°26'2 3.2
2018-Jun-12 05:00N 47°47' W 122°24'0 0.1
2018-Jun-12 04:30N 47°47' W 122°24'0 0.0
2018-Jun-12 04:00N 47°47' W 122°24'0 0.0
2018-Jun-12 03:30N 47°47' W 122°24'0 0.0
2018-Jun-12 03:00N 47°47' W 122°24'0 0.0
2018-Jun-12 02:30N 47°47' W 122°24'0 0.0
2018-Jun-12 02:00N 47°47' W 122°24'0 0.0
2018-Jun-12 01:30N 47°47' W 122°24'0 0.0
2018-Jun-12 01:00N 47°47' W 122°24'0 0.0
2018-Jun-12 00:24N 47°47' W 122°24'0 0.0
2018-Jun-12 00:00N 47°47' W 122°24'0 0.0
2018-Jun-11 23:30N 47°47' W 122°24'0 0.0
2018-Jun-11 23:00N 47°47' W 122°24'0 0.0
2018-Jun-11 22:30N 47°47' W 122°24'0 0.0
2018-Jun-11 21:59N 47°47' W 122°24'0 0.0
2018-Jun-11 21:30N 47°47' W 122°24'0 0.0
2018-Jun-11 21:00N 47°47' W 122°24'0 0.1
2018-Jun-11 20:30N 47°47' W 122°24'1 1.0
2018-Jun-11 20:00N 47°47' W 122°25'1 1.6
2018-Jun-11 19:30N 47°48' W 122°25'4 7.2
2018-Jun-11 18:58N 47°51' W 122°28'35 5.8
2018-Jun-11 12:54N 48°24' W 122°45'4 9.1
2018-Jun-11 12:30N 48°28' W 122°45'4 7.4
2018-Jun-11 12:00N 48°31' W 122°41'3 6.7
2018-Jun-11 11:30N 48°32' W 122°36'2 3.3
2018-Jun-11 11:00N 48°31' W 122°34'0 0.4
2018-Jun-11 10:30N 48°30' W 122°34'0 0.0
2018-Jun-11 10:00N 48°30' W 122°34'0 0.0
2018-Jun-11 09:30N 48°30' W 122°34'0 0.0
2018-Jun-11 09:00N 48°30' W 122°34'0 0.0
2018-Jun-11 08:30N 48°30' W 122°34'  

Dump ship's entire track history